sensor_id;sensor_type;location;lat;lon;timestamp;P1;durP1;ratioP1;P2;durP2;ratioP2
60336;SDS011;46978;50.288;28.624;2024-01-15T00:00:40;44.64;;;20.63;;
60336;SDS011;46978;50.288;28.624;2024-01-15T00:01:43;87.78;;;31.68;;
60336;SDS011;46978;50.288;28.624;2024-01-15T00:02:46;82.13;;;29.79;;
60336;SDS011;46978;50.288;28.624;2024-01-15T00:03:48;44.97;;;18.27;;
60336;SDS011;46978;50.288;28.624;2024-01-15T00:04:50;54.03;;;19.77;;
60336;SDS011;46978;50.288;28.624;2024-01-15T00:05:51;46.98;;;18.55;;
60336;SDS011;46978;50.288;28.624;2024-01-15T00:06:53;47.49;;;17.83;;
60336;SDS011;46978;50.288;28.624;2024-01-15T00:07:55;40.49;;;13.92;;
60336;SDS011;46978;50.288;28.624;2024-01-15T00:08:56;28.64;;;10.64;;
60336;SDS011;46978;50.288;28.624;2024-01-15T00:09:58;28.19;;;11.81;;
60336;SDS011;46978;50.288;28.624;2024-01-15T00:11:01;29.75;;;12.19;;
60336;SDS011;46978;50.288;28.624;2024-01-15T00:12:03;22.01;;;10.46;;
60336;SDS011;46978;50.288;28.624;2024-01-15T00:13:05;28.73;;;12.66;;
60336;SDS011;46978;50.288;28.624;2024-01-15T00:14:07;32.68;;;14.24;;
60336;SDS011;46978;50.288;28.624;2024-01-15T00:15:08;31.98;;;14.95;;
60336;SDS011;46978;50.288;28.624;2024-01-15T00:16:11;37.54;;;16.95;;
60336;SDS011;46978;50.288;28.624;2024-01-15T00:17:12;36.06;;;16.04;;
60336;SDS011;46978;50.288;28.624;2024-01-15T00:18:15;36.17;;;16.79;;
60336;SDS011;46978;50.288;28.624;2024-01-15T00:19:16;28.18;;;12.97;;
60336;SDS011;46978;50.288;28.624;2024-01-15T00:20:20;18.85;;;9.82;;
60336;SDS011;46978;50.288;28.624;2024-01-15T00:21:21;21.76;;;11.07;;
60336;SDS011;46978;50.288;28.624;2024-01-15T00:22:24;33.83;;;14.94;;
60336;SDS011;46978;50.288;28.624;2024-01-15T00:23:27;22.56;;;10.94;;
60336;SDS011;46978;50.288;28.624;2024-01-15T00:24:28;36.18;;;15.07;;
60336;SDS011;46978;50.288;28.624;2024-01-15T00:25:32;22.62;;;10.79;;
60336;SDS011;46978;50.288;28.624;2024-01-15T00:26:33;16.82;;;9.09;;
60336;SDS011;46978;50.288;28.624;2024-01-15T00:27:35;13.69;;;7.55;;
60336;SDS011;46978;50.288;28.624;2024-01-15T00:28:37;23.76;;;10.67;;
60336;SDS011;46978;50.288;28.624;2024-01-15T00:29:39;22.46;;;10.59;;
60336;SDS011;46978;50.288;28.624;2024-01-15T00:30:41;22.54;;;9.17;;
60336;SDS011;46978;50.288;28.624;2024-01-15T00:31:42;15.90;;;8.64;;
60336;SDS011;46978;50.288;28.624;2024-01-15T00:32:44;18.91;;;8.36;;
60336;SDS011;46978;50.288;28.624;2024-01-15T00:33:46;21.37;;;9.81;;
60336;SDS011;46978;50.288;28.624;2024-01-15T00:34:48;15.54;;;7.81;;
60336;SDS011;46978;50.288;28.624;2024-01-15T00:35:49;22.80;;;10.93;;
60336;SDS011;46978;50.288;28.624;2024-01-15T00:36:51;31.93;;;12.69;;
60336;SDS011;46978;50.288;28.624;2024-01-15T00:37:53;30.16;;;12.51;;
60336;SDS011;46978;50.288;28.624;2024-01-15T00:38:54;34.22;;;14.06;;
60336;SDS011;46978;50.288;28.624;2024-01-15T00:39:56;32.60;;;13.14;;
60336;SDS011;46978;50.288;28.624;2024-01-15T00:40:58;17.55;;;8.75;;
60336;SDS011;46978;50.288;28.624;2024-01-15T00:42:00;63.97;;;20.08;;
60336;SDS011;46978;50.288;28.624;2024-01-15T00:43:02;69.09;;;21.24;;
60336;SDS011;46978;50.288;28.624;2024-01-15T00:44:04;69.89;;;21.17;;
60336;SDS011;46978;50.288;28.624;2024-01-15T00:45:06;31.49;;;13.40;;
60336;SDS011;46978;50.288;28.624;2024-01-15T00:46:09;58.08;;;19.06;;
60336;SDS011;46978;50.288;28.624;2024-01-15T00:47:11;52.69;;;19.74;;
60336;SDS011;46978;50.288;28.624;2024-01-15T00:48:12;46.92;;;17.34;;
60336;SDS011;46978;50.288;28.624;2024-01-15T00:49:14;39.82;;;14.59;;
60336;SDS011;46978;50.288;28.624;2024-01-15T00:50:18;39.92;;;15.13;;
60336;SDS011;46978;50.288;28.624;2024-01-15T00:51:19;32.06;;;12.59;;
60336;SDS011;46978;50.288;28.624;2024-01-15T00:52:21;39.47;;;14.59;;
60336;SDS011;46978;50.288;28.624;2024-01-15T00:53:23;38.91;;;15.34;;
60336;SDS011;46978;50.288;28.624;2024-01-15T00:54:25;30.95;;;12.49;;
60336;SDS011;46978;50.288;28.624;2024-01-15T00:55:29;23.79;;;11.71;;
60336;SDS011;46978;50.288;28.624;2024-01-15T00:56:32;20.13;;;11.45;;
60336;SDS011;46978;50.288;28.624;2024-01-15T00:57:34;16.73;;;9.63;;
60336;SDS011;46978;50.288;28.624;2024-01-15T00:58:36;22.15;;;10.78;;
60336;SDS011;46978;50.288;28.624;2024-01-15T00:59:37;23.64;;;12.06;;
60336;SDS011;46978;50.288;28.624;2024-01-15T01:00:39;25.57;;;11.87;;
60336;SDS011;46978;50.288;28.624;2024-01-15T01:01:42;28.11;;;12.53;;
60336;SDS011;46978;50.288;28.624;2024-01-15T01:02:44;28.72;;;13.76;;
60336;SDS011;46978;50.288;28.624;2024-01-15T01:03:46;24.39;;;12.69;;
60336;SDS011;46978;50.288;28.624;2024-01-15T01:04:47;21.74;;;11.46;;
60336;SDS011;46978;50.288;28.624;2024-01-15T01:05:49;19.41;;;10.01;;
60336;SDS011;46978;50.288;28.624;2024-01-15T01:06:51;21.01;;;10.69;;
60336;SDS011;46978;50.288;28.624;2024-01-15T01:07:53;23.21;;;11.41;;
60336;SDS011;46978;50.288;28.624;2024-01-15T01:08:55;15.31;;;9.07;;
60336;SDS011;46978;50.288;28.624;2024-01-15T01:09:56;15.17;;;8.58;;
60336;SDS011;46978;50.288;28.624;2024-01-15T01:10:58;14.59;;;7.96;;
60336;SDS011;46978;50.288;28.624;2024-01-15T01:12:00;11.98;;;7.51;;
60336;SDS011;46978;50.288;28.624;2024-01-15T01:13:02;13.31;;;7.89;;
60336;SDS011;46978;50.288;28.624;2024-01-15T01:14:04;12.13;;;7.11;;
60336;SDS011;46978;50.288;28.624;2024-01-15T01:15:06;12.30;;;7.61;;
60336;SDS011;46978;50.288;28.624;2024-01-15T01:16:09;12.09;;;7.48;;
60336;SDS011;46978;50.288;28.624;2024-01-15T01:17:11;13.21;;;7.64;;
60336;SDS011;46978;50.288;28.624;2024-01-15T01:18:12;12.64;;;7.86;;
60336;SDS011;46978;50.288;28.624;2024-01-15T01:19:14;11.62;;;7.81;;
60336;SDS011;46978;50.288;28.624;2024-01-15T01:20:16;14.11;;;7.77;;
60336;SDS011;46978;50.288;28.624;2024-01-15T01:21:18;10.43;;;6.38;;
60336;SDS011;46978;50.288;28.624;2024-01-15T01:22:19;11.88;;;7.56;;
60336;SDS011;46978;50.288;28.624;2024-01-15T01:23:21;12.02;;;7.32;;
60336;SDS011;46978;50.288;28.624;2024-01-15T01:24:23;12.83;;;7.30;;
60336;SDS011;46978;50.288;28.624;2024-01-15T01:25:26;13.97;;;8.01;;
60336;SDS011;46978;50.288;28.624;2024-01-15T01:26:29;14.61;;;8.19;;
60336;SDS011;46978;50.288;28.624;2024-01-15T01:27:31;13.39;;;8.27;;
60336;SDS011;46978;50.288;28.624;2024-01-15T01:28:33;12.95;;;7.79;;
60336;SDS011;46978;50.288;28.624;2024-01-15T01:29:35;11.71;;;7.41;;
60336;SDS011;46978;50.288;28.624;2024-01-15T01:30:36;22.39;;;11.25;;
60336;SDS011;46978;50.288;28.624;2024-01-15T01:31:44;25.54;;;13.40;;
60336;SDS011;46978;50.288;28.624;2024-01-15T01:32:46;34.38;;;14.55;;
60336;SDS011;46978;50.288;28.624;2024-01-15T01:33:48;25.77;;;11.96;;
60336;SDS011;46978;50.288;28.624;2024-01-15T01:34:50;44.92;;;16.66;;
60336;SDS011;46978;50.288;28.624;2024-01-15T01:35:51;58.09;;;23.08;;
60336;SDS011;46978;50.288;28.624;2024-01-15T01:36:53;35.08;;;13.83;;
60336;SDS011;46978;50.288;28.624;2024-01-15T01:37:55;35.95;;;15.70;;
60336;SDS011;46978;50.288;28.624;2024-01-15T01:38:57;22.06;;;10.66;;
60336;SDS011;46978;50.288;28.624;2024-01-15T01:39:58;26.46;;;11.21;;
60336;SDS011;46978;50.288;28.624;2024-01-15T01:41:00;48.13;;;19.49;;
60336;SDS011;46978;50.288;28.624;2024-01-15T01:42:02;34.26;;;14.06;;
60336;SDS011;46978;50.288;28.624;2024-01-15T01:43:04;29.15;;;13.87;;
60336;SDS011;46978;50.288;28.624;2024-01-15T01:44:06;36.60;;;15.19;;
60336;SDS011;46978;50.288;28.624;2024-01-15T01:45:09;36.43;;;16.32;;
60336;SDS011;46978;50.288;28.624;2024-01-15T01:46:12;40.32;;;17.59;;
60336;SDS011;46978;50.288;28.624;2024-01-15T01:47:14;27.23;;;13.22;;
60336;SDS011;46978;50.288;28.624;2024-01-15T01:48:16;27.70;;;12.85;;
60336;SDS011;46978;50.288;28.624;2024-01-15T01:49:18;23.34;;;11.65;;
60336;SDS011;46978;50.288;28.624;2024-01-15T01:50:20;28.48;;;14.04;;
60336;SDS011;46978;50.288;28.624;2024-01-15T01:51:23;23.79;;;11.39;;
60336;SDS011;46978;50.288;28.624;2024-01-15T01:52:26;26.54;;;12.81;;
60336;SDS011;46978;50.288;28.624;2024-01-15T01:53:28;18.32;;;9.05;;
60336;SDS011;46978;50.288;28.624;2024-01-15T01:54:31;16.22;;;8.86;;
60336;SDS011;46978;50.288;28.624;2024-01-15T01:55:35;26.95;;;12.72;;
60336;SDS011;46978;50.288;28.624;2024-01-15T01:56:40;14.48;;;7.99;;
60336;SDS011;46978;50.288;28.624;2024-01-15T01:57:43;17.62;;;9.07;;
60336;SDS011;46978;50.288;28.624;2024-01-15T01:58:45;14.74;;;8.45;;
60336;SDS011;46978;50.288;28.624;2024-01-15T01:59:49;18.29;;;10.33;;
60336;SDS011;46978;50.288;28.624;2024-01-15T02:00:53;17.50;;;9.41;;
60336;SDS011;46978;50.288;28.624;2024-01-15T02:01:54;12.11;;;7.17;;
60336;SDS011;46978;50.288;28.624;2024-01-15T02:02:56;15.84;;;8.31;;
60336;SDS011;46978;50.288;28.624;2024-01-15T02:03:58;17.02;;;8.95;;
60336;SDS011;46978;50.288;28.624;2024-01-15T02:05:00;16.50;;;8.96;;
60336;SDS011;46978;50.288;28.624;2024-01-15T02:06:03;15.13;;;8.39;;
60336;SDS011;46978;50.288;28.624;2024-01-15T02:07:05;11.83;;;6.90;;
60336;SDS011;46978;50.288;28.624;2024-01-15T02:08:07;12.85;;;7.59;;
60336;SDS011;46978;50.288;28.624;2024-01-15T02:09:09;14.96;;;8.45;;
60336;SDS011;46978;50.288;28.624;2024-01-15T02:10:11;17.25;;;9.43;;
60336;SDS011;46978;50.288;28.624;2024-01-15T02:11:13;21.07;;;11.54;;
60336;SDS011;46978;50.288;28.624;2024-01-15T02:12:15;17.61;;;10.11;;
60336;SDS011;46978;50.288;28.624;2024-01-15T02:13:17;13.85;;;8.07;;
60336;SDS011;46978;50.288;28.624;2024-01-15T02:14:20;19.17;;;10.50;;
60336;SDS011;46978;50.288;28.624;2024-01-15T02:15:22;20.47;;;11.32;;
60336;SDS011;46978;50.288;28.624;2024-01-15T02:16:25;18.32;;;9.10;;
60336;SDS011;46978;50.288;28.624;2024-01-15T02:17:26;18.15;;;9.51;;
60336;SDS011;46978;50.288;28.624;2024-01-15T02:18:28;15.25;;;8.31;;
60336;SDS011;46978;50.288;28.624;2024-01-15T02:19:30;23.56;;;11.85;;
60336;SDS011;46978;50.288;28.624;2024-01-15T02:20:32;16.43;;;9.49;;
60336;SDS011;46978;50.288;28.624;2024-01-15T02:21:34;17.30;;;9.06;;
60336;SDS011;46978;50.288;28.624;2024-01-15T02:22:36;15.88;;;9.41;;
60336;SDS011;46978;50.288;28.624;2024-01-15T02:23:37;17.44;;;10.27;;
60336;SDS011;46978;50.288;28.624;2024-01-15T02:24:39;16.27;;;9.31;;
60336;SDS011;46978;50.288;28.624;2024-01-15T02:25:42;13.61;;;8.31;;
60336;SDS011;46978;50.288;28.624;2024-01-15T02:26:45;20.63;;;11.14;;
60336;SDS011;46978;50.288;28.624;2024-01-15T02:27:47;20.03;;;10.70;;
60336;SDS011;46978;50.288;28.624;2024-01-15T02:28:49;16.72;;;9.90;;
60336;SDS011;46978;50.288;28.624;2024-01-15T02:29:52;15.60;;;8.36;;
60336;SDS011;46978;50.288;28.624;2024-01-15T02:30:54;16.61;;;9.53;;
60336;SDS011;46978;50.288;28.624;2024-01-15T02:31:56;18.63;;;9.84;;
60336;SDS011;46978;50.288;28.624;2024-01-15T02:32:57;20.62;;;10.43;;
60336;SDS011;46978;50.288;28.624;2024-01-15T02:33:59;19.23;;;10.12;;
60336;SDS011;46978;50.288;28.624;2024-01-15T02:35:01;15.48;;;9.01;;
60336;SDS011;46978;50.288;28.624;2024-01-15T02:36:03;20.25;;;11.06;;
60336;SDS011;46978;50.288;28.624;2024-01-15T02:37:05;14.18;;;8.79;;
60336;SDS011;46978;50.288;28.624;2024-01-15T02:38:07;17.26;;;8.31;;
60336;SDS011;46978;50.288;28.624;2024-01-15T02:39:09;13.47;;;8.19;;
60336;SDS011;46978;50.288;28.624;2024-01-15T02:40:11;17.18;;;9.98;;
60336;SDS011;46978;50.288;28.624;2024-01-15T02:41:13;14.59;;;8.97;;
60336;SDS011;46978;50.288;28.624;2024-01-15T02:42:15;15.04;;;8.21;;
60336;SDS011;46978;50.288;28.624;2024-01-15T02:43:16;14.61;;;8.67;;
60336;SDS011;46978;50.288;28.624;2024-01-15T02:44:18;14.00;;;7.93;;
60336;SDS011;46978;50.288;28.624;2024-01-15T02:45:19;14.50;;;7.74;;
60336;SDS011;46978;50.288;28.624;2024-01-15T02:46:23;15.08;;;8.78;;
60336;SDS011;46978;50.288;28.624;2024-01-15T02:47:25;14.21;;;7.38;;
60336;SDS011;46978;50.288;28.624;2024-01-15T02:48:26;17.36;;;9.48;;
60336;SDS011;46978;50.288;28.624;2024-01-15T02:49:28;14.85;;;8.96;;
60336;SDS011;46978;50.288;28.624;2024-01-15T02:50:30;13.95;;;8.35;;
60336;SDS011;46978;50.288;28.624;2024-01-15T02:51:32;16.31;;;8.46;;
60336;SDS011;46978;50.288;28.624;2024-01-15T02:52:34;27.13;;;12.25;;
60336;SDS011;46978;50.288;28.624;2024-01-15T02:53:36;21.00;;;10.73;;
60336;SDS011;46978;50.288;28.624;2024-01-15T02:54:37;24.15;;;11.00;;
60336;SDS011;46978;50.288;28.624;2024-01-15T02:55:40;17.32;;;8.75;;
60336;SDS011;46978;50.288;28.624;2024-01-15T02:56:42;20.33;;;10.52;;
60336;SDS011;46978;50.288;28.624;2024-01-15T02:57:43;19.50;;;10.63;;
60336;SDS011;46978;50.288;28.624;2024-01-15T02:58:45;20.54;;;11.27;;
60336;SDS011;46978;50.288;28.624;2024-01-15T02:59:46;18.45;;;9.94;;
60336;SDS011;46978;50.288;28.624;2024-01-15T03:00:49;14.06;;;8.89;;
60336;SDS011;46978;50.288;28.624;2024-01-15T03:01:52;20.90;;;10.91;;
60336;SDS011;46978;50.288;28.624;2024-01-15T03:02:54;20.45;;;10.81;;
60336;SDS011;46978;50.288;28.624;2024-01-15T03:03:56;14.77;;;7.89;;
60336;SDS011;46978;50.288;28.624;2024-01-15T03:04:58;17.15;;;9.11;;
60336;SDS011;46978;50.288;28.624;2024-01-15T03:06:01;15.42;;;8.72;;
60336;SDS011;46978;50.288;28.624;2024-01-15T03:07:03;20.54;;;10.74;;
60336;SDS011;46978;50.288;28.624;2024-01-15T03:08:05;16.84;;;9.27;;
60336;SDS011;46978;50.288;28.624;2024-01-15T03:09:07;14.86;;;7.92;;
60336;SDS011;46978;50.288;28.624;2024-01-15T03:10:10;15.24;;;8.34;;
60336;SDS011;46978;50.288;28.624;2024-01-15T03:11:12;23.86;;;11.33;;
60336;SDS011;46978;50.288;28.624;2024-01-15T03:12:13;21.44;;;10.04;;
60336;SDS011;46978;50.288;28.624;2024-01-15T03:13:15;16.31;;;9.01;;
60336;SDS011;46978;50.288;28.624;2024-01-15T03:14:16;23.79;;;12.00;;
60336;SDS011;46978;50.288;28.624;2024-01-15T03:15:18;21.74;;;10.41;;
60336;SDS011;46978;50.288;28.624;2024-01-15T03:16:20;19.17;;;9.43;;
60336;SDS011;46978;50.288;28.624;2024-01-15T03:17:22;18.64;;;9.39;;
60336;SDS011;46978;50.288;28.624;2024-01-15T03:18:23;14.46;;;8.85;;
60336;SDS011;46978;50.288;28.624;2024-01-15T03:19:25;17.98;;;9.14;;
60336;SDS011;46978;50.288;28.624;2024-01-15T03:20:27;18.41;;;9.57;;
60336;SDS011;46978;50.288;28.624;2024-01-15T03:21:29;16.92;;;8.87;;
60336;SDS011;46978;50.288;28.624;2024-01-15T03:22:30;14.76;;;9.17;;
60336;SDS011;46978;50.288;28.624;2024-01-15T03:23:32;14.56;;;7.95;;
60336;SDS011;46978;50.288;28.624;2024-01-15T03:24:34;18.65;;;9.30;;
60336;SDS011;46978;50.288;28.624;2024-01-15T03:25:37;17.09;;;8.32;;
60336;SDS011;46978;50.288;28.624;2024-01-15T03:26:39;15.85;;;8.60;;
60336;SDS011;46978;50.288;28.624;2024-01-15T03:27:41;16.86;;;8.88;;
60336;SDS011;46978;50.288;28.624;2024-01-15T03:28:43;17.68;;;9.05;;
60336;SDS011;46978;50.288;28.624;2024-01-15T03:29:44;17.66;;;9.76;;
60336;SDS011;46978;50.288;28.624;2024-01-15T03:30:47;16.48;;;9.73;;
60336;SDS011;46978;50.288;28.624;2024-01-15T03:31:48;18.49;;;9.26;;
60336;SDS011;46978;50.288;28.624;2024-01-15T03:32:50;17.31;;;9.51;;
60336;SDS011;46978;50.288;28.624;2024-01-15T03:33:52;16.26;;;9.16;;
60336;SDS011;46978;50.288;28.624;2024-01-15T03:34:53;19.39;;;10.64;;
60336;SDS011;46978;50.288;28.624;2024-01-15T03:35:55;28.34;;;13.25;;
60336;SDS011;46978;50.288;28.624;2024-01-15T03:36:57;18.89;;;9.51;;
60336;SDS011;46978;50.288;28.624;2024-01-15T03:37:59;23.14;;;9.97;;
60336;SDS011;46978;50.288;28.624;2024-01-15T03:39:00;18.44;;;9.86;;
60336;SDS011;46978;50.288;28.624;2024-01-15T03:40:03;19.10;;;10.66;;
60336;SDS011;46978;50.288;28.624;2024-01-15T03:41:05;19.02;;;10.77;;
60336;SDS011;46978;50.288;28.624;2024-01-15T03:42:06;22.66;;;10.60;;
60336;SDS011;46978;50.288;28.624;2024-01-15T03:43:08;20.46;;;10.41;;
60336;SDS011;46978;50.288;28.624;2024-01-15T03:44:10;28.37;;;13.09;;
60336;SDS011;46978;50.288;28.624;2024-01-15T03:45:12;22.89;;;11.06;;
60336;SDS011;46978;50.288;28.624;2024-01-15T03:46:15;19.03;;;10.00;;
60336;SDS011;46978;50.288;28.624;2024-01-15T03:47:16;18.21;;;9.64;;
60336;SDS011;46978;50.288;28.624;2024-01-15T03:48:18;18.13;;;9.69;;
60336;SDS011;46978;50.288;28.624;2024-01-15T03:49:20;21.61;;;10.90;;
60336;SDS011;46978;50.288;28.624;2024-01-15T03:50:22;25.95;;;11.88;;
60336;SDS011;46978;50.288;28.624;2024-01-15T03:51:23;16.31;;;9.32;;
60336;SDS011;46978;50.288;28.624;2024-01-15T03:52:26;18.12;;;9.40;;
60336;SDS011;46978;50.288;28.624;2024-01-15T03:53:27;26.22;;;11.44;;
60336;SDS011;46978;50.288;28.624;2024-01-15T03:54:29;18.63;;;9.61;;
60336;SDS011;46978;50.288;28.624;2024-01-15T03:55:32;18.31;;;9.45;;
60336;SDS011;46978;50.288;28.624;2024-01-15T03:56:34;17.99;;;9.56;;
60336;SDS011;46978;50.288;28.624;2024-01-15T03:57:35;17.81;;;9.83;;
60336;SDS011;46978;50.288;28.624;2024-01-15T04:01:20;25.80;;;11.22;;
60336;SDS011;46978;50.288;28.624;2024-01-15T04:02:22;20.62;;;10.73;;
60336;SDS011;46978;50.288;28.624;2024-01-15T04:03:23;18.06;;;9.69;;
60336;SDS011;46978;50.288;28.624;2024-01-15T04:04:25;17.29;;;9.37;;
60336;SDS011;46978;50.288;28.624;2024-01-15T04:05:26;20.85;;;10.11;;
60336;SDS011;46978;50.288;28.624;2024-01-15T04:06:30;16.86;;;8.89;;
60336;SDS011;46978;50.288;28.624;2024-01-15T04:07:34;16.66;;;8.83;;
60336;SDS011;46978;50.288;28.624;2024-01-15T04:08:36;22.26;;;10.31;;
60336;SDS011;46978;50.288;28.624;2024-01-15T04:09:37;20.83;;;9.97;;
60336;SDS011;46978;50.288;28.624;2024-01-15T04:10:41;22.34;;;11.53;;
60336;SDS011;46978;50.288;28.624;2024-01-15T04:11:42;23.76;;;11.15;;
60336;SDS011;46978;50.288;28.624;2024-01-15T04:12:44;24.94;;;11.11;;
60336;SDS011;46978;50.288;28.624;2024-01-15T04:13:46;17.01;;;9.57;;
60336;SDS011;46978;50.288;28.624;2024-01-15T04:14:47;17.69;;;8.84;;
60336;SDS011;46978;50.288;28.624;2024-01-15T04:15:49;15.74;;;8.94;;
60336;SDS011;46978;50.288;28.624;2024-01-15T04:16:51;16.95;;;8.93;;
60336;SDS011;46978;50.288;28.624;2024-01-15T04:17:52;18.11;;;9.86;;
60336;SDS011;46978;50.288;28.624;2024-01-15T04:18:54;18.35;;;9.54;;
60336;SDS011;46978;50.288;28.624;2024-01-15T04:19:56;19.36;;;10.44;;
60336;SDS011;46978;50.288;28.624;2024-01-15T04:20:57;17.81;;;9.57;;
60336;SDS011;46978;50.288;28.624;2024-01-15T04:21:59;17.58;;;9.22;;
60336;SDS011;46978;50.288;28.624;2024-01-15T04:23:01;17.83;;;10.25;;
60336;SDS011;46978;50.288;28.624;2024-01-15T04:24:03;24.96;;;12.40;;
60336;SDS011;46978;50.288;28.624;2024-01-15T04:25:05;19.20;;;10.39;;
60336;SDS011;46978;50.288;28.624;2024-01-15T04:26:08;18.21;;;10.20;;
60336;SDS011;46978;50.288;28.624;2024-01-15T04:27:10;18.74;;;10.37;;
60336;SDS011;46978;50.288;28.624;2024-01-15T04:28:12;17.92;;;8.64;;
60336;SDS011;46978;50.288;28.624;2024-01-15T04:29:14;16.05;;;8.63;;
60336;SDS011;46978;50.288;28.624;2024-01-15T04:30:15;18.96;;;10.11;;
60336;SDS011;46978;50.288;28.624;2024-01-15T04:31:25;15.18;;;8.26;;
60336;SDS011;46978;50.288;28.624;2024-01-15T04:32:25;17.44;;;9.13;;
60336;SDS011;46978;50.288;28.624;2024-01-15T04:33:26;17.00;;;8.77;;
60336;SDS011;46978;50.288;28.624;2024-01-15T04:34:28;17.77;;;8.95;;
60336;SDS011;46978;50.288;28.624;2024-01-15T04:35:30;18.99;;;8.69;;
60336;SDS011;46978;50.288;28.624;2024-01-15T04:36:38;17.77;;;8.49;;
60336;SDS011;46978;50.288;28.624;2024-01-15T04:37:42;15.82;;;8.96;;
60336;SDS011;46978;50.288;28.624;2024-01-15T04:38:43;18.43;;;9.38;;
60336;SDS011;46978;50.288;28.624;2024-01-15T04:39:45;18.36;;;9.79;;
60336;SDS011;46978;50.288;28.624;2024-01-15T04:40:47;18.23;;;9.58;;
60336;SDS011;46978;50.288;28.624;2024-01-15T04:41:48;17.24;;;8.30;;
60336;SDS011;46978;50.288;28.624;2024-01-15T04:42:50;14.26;;;8.44;;
60336;SDS011;46978;50.288;28.624;2024-01-15T04:43:52;14.99;;;8.44;;
60336;SDS011;46978;50.288;28.624;2024-01-15T04:44:53;17.55;;;8.94;;
60336;SDS011;46978;50.288;28.624;2024-01-15T04:45:55;12.94;;;7.66;;
60336;SDS011;46978;50.288;28.624;2024-01-15T04:46:57;17.57;;;8.87;;
60336;SDS011;46978;50.288;28.624;2024-01-15T04:47:59;15.30;;;8.51;;
60336;SDS011;46978;50.288;28.624;2024-01-15T04:49:00;14.94;;;8.12;;
60336;SDS011;46978;50.288;28.624;2024-01-15T04:50:03;17.47;;;8.66;;
60336;SDS011;46978;50.288;28.624;2024-01-15T04:51:08;13.51;;;7.67;;
60336;SDS011;46978;50.288;28.624;2024-01-15T04:52:10;14.31;;;8.55;;
60336;SDS011;46978;50.288;28.624;2024-01-15T04:53:11;15.17;;;8.83;;
60336;SDS011;46978;50.288;28.624;2024-01-15T04:54:13;15.89;;;8.56;;
60336;SDS011;46978;50.288;28.624;2024-01-15T04:55:15;17.13;;;8.70;;
60336;SDS011;46978;50.288;28.624;2024-01-15T04:56:17;13.87;;;7.88;;
60336;SDS011;46978;50.288;28.624;2024-01-15T04:57:18;16.76;;;8.49;;
60336;SDS011;46978;50.288;28.624;2024-01-15T04:58:20;26.12;;;11.28;;
60336;SDS011;46978;50.288;28.624;2024-01-15T04:59:21;18.47;;;9.56;;
60336;SDS011;46978;50.288;28.624;2024-01-15T05:00:24;15.40;;;8.52;;
60336;SDS011;46978;50.288;28.624;2024-01-15T05:01:25;18.71;;;9.45;;
60336;SDS011;46978;50.288;28.624;2024-01-15T05:02:29;16.75;;;8.96;;
60336;SDS011;46978;50.288;28.624;2024-01-15T05:03:30;15.80;;;8.79;;
60336;SDS011;46978;50.288;28.624;2024-01-15T05:04:32;13.10;;;8.09;;
60336;SDS011;46978;50.288;28.624;2024-01-15T05:05:33;14.22;;;8.20;;
60336;SDS011;46978;50.288;28.624;2024-01-15T05:06:35;15.39;;;8.11;;
60336;SDS011;46978;50.288;28.624;2024-01-15T05:07:37;19.06;;;9.77;;
60336;SDS011;46978;50.288;28.624;2024-01-15T05:08:39;17.73;;;8.59;;
60336;SDS011;46978;50.288;28.624;2024-01-15T05:09:40;15.27;;;7.64;;
60336;SDS011;46978;50.288;28.624;2024-01-15T05:10:42;20.09;;;8.99;;
60336;SDS011;46978;50.288;28.624;2024-01-15T05:11:44;14.72;;;8.06;;
60336;SDS011;46978;50.288;28.624;2024-01-15T05:12:45;16.51;;;8.01;;
60336;SDS011;46978;50.288;28.624;2024-01-15T05:13:48;15.41;;;8.62;;
60336;SDS011;46978;50.288;28.624;2024-01-15T05:14:50;17.45;;;7.88;;
60336;SDS011;46978;50.288;28.624;2024-01-15T05:15:52;17.54;;;8.96;;
60336;SDS011;46978;50.288;28.624;2024-01-15T05:16:54;15.05;;;8.77;;
60336;SDS011;46978;50.288;28.624;2024-01-15T05:17:56;18.49;;;9.92;;
60336;SDS011;46978;50.288;28.624;2024-01-15T05:18:57;17.18;;;9.38;;
60336;SDS011;46978;50.288;28.624;2024-01-15T05:19:59;16.34;;;9.07;;
60336;SDS011;46978;50.288;28.624;2024-01-15T05:21:01;16.77;;;8.88;;
60336;SDS011;46978;50.288;28.624;2024-01-15T05:22:02;18.92;;;9.66;;
60336;SDS011;46978;50.288;28.624;2024-01-15T05:23:04;17.65;;;9.35;;
60336;SDS011;46978;50.288;28.624;2024-01-15T05:24:06;18.59;;;9.30;;
60336;SDS011;46978;50.288;28.624;2024-01-15T05:25:09;17.25;;;9.26;;
60336;SDS011;46978;50.288;28.624;2024-01-15T05:26:11;16.63;;;8.53;;
60336;SDS011;46978;50.288;28.624;2024-01-15T05:27:13;18.18;;;9.66;;
60336;SDS011;46978;50.288;28.624;2024-01-15T05:28:14;21.61;;;10.91;;
60336;SDS011;46978;50.288;28.624;2024-01-15T05:29:16;24.47;;;12.17;;
60336;SDS011;46978;50.288;28.624;2024-01-15T05:30:19;21.97;;;11.09;;
60336;SDS011;46978;50.288;28.624;2024-01-15T05:31:21;19.86;;;9.79;;
60336;SDS011;46978;50.288;28.624;2024-01-15T05:32:23;22.99;;;11.67;;
60336;SDS011;46978;50.288;28.624;2024-01-15T05:33:25;20.34;;;10.45;;
60336;SDS011;46978;50.288;28.624;2024-01-15T05:34:26;16.29;;;9.19;;
60336;SDS011;46978;50.288;28.624;2024-01-15T05:35:28;16.42;;;8.58;;
60336;SDS011;46978;50.288;28.624;2024-01-15T05:36:30;14.08;;;7.79;;
60336;SDS011;46978;50.288;28.624;2024-01-15T05:37:32;13.83;;;7.89;;
60336;SDS011;46978;50.288;28.624;2024-01-15T05:38:33;15.99;;;8.34;;
60336;SDS011;46978;50.288;28.624;2024-01-15T05:39:35;16.70;;;8.72;;
60336;SDS011;46978;50.288;28.624;2024-01-15T05:40:37;18.13;;;8.90;;
60336;SDS011;46978;50.288;28.624;2024-01-15T05:41:38;17.41;;;9.54;;
60336;SDS011;46978;50.288;28.624;2024-01-15T05:42:40;19.89;;;9.78;;
60336;SDS011;46978;50.288;28.624;2024-01-15T05:43:42;14.97;;;7.78;;
60336;SDS011;46978;50.288;28.624;2024-01-15T05:44:44;16.27;;;8.45;;
60336;SDS011;46978;50.288;28.624;2024-01-15T05:45:46;14.49;;;7.89;;
60336;SDS011;46978;50.288;28.624;2024-01-15T05:46:47;15.02;;;8.36;;
60336;SDS011;46978;50.288;28.624;2024-01-15T05:47:49;13.48;;;8.04;;
60336;SDS011;46978;50.288;28.624;2024-01-15T05:48:51;15.89;;;8.84;;
60336;SDS011;46978;50.288;28.624;2024-01-15T05:49:52;16.54;;;8.90;;
60336;SDS011;46978;50.288;28.624;2024-01-15T05:50:55;16.17;;;8.89;;
60336;SDS011;46978;50.288;28.624;2024-01-15T05:51:57;15.63;;;7.75;;
60336;SDS011;46978;50.288;28.624;2024-01-15T05:52:59;14.69;;;7.41;;
60336;SDS011;46978;50.288;28.624;2024-01-15T05:54:00;15.34;;;8.25;;
60336;SDS011;46978;50.288;28.624;2024-01-15T05:55:02;14.86;;;8.09;;
60336;SDS011;46978;50.288;28.624;2024-01-15T05:56:05;15.86;;;7.37;;
60336;SDS011;46978;50.288;28.624;2024-01-15T05:57:07;13.20;;;7.46;;
60336;SDS011;46978;50.288;28.624;2024-01-15T05:58:09;14.99;;;8.18;;
60336;SDS011;46978;50.288;28.624;2024-01-15T05:59:10;12.86;;;7.69;;
60336;SDS011;46978;50.288;28.624;2024-01-15T06:00:13;18.11;;;9.58;;
60336;SDS011;46978;50.288;28.624;2024-01-15T06:01:15;14.59;;;7.70;;
60336;SDS011;46978;50.288;28.624;2024-01-15T06:02:17;12.44;;;7.26;;
60336;SDS011;46978;50.288;28.624;2024-01-15T06:03:19;13.99;;;7.71;;